Time;durP1;ratioP1;P1;durP2;ratioP2;P2;SDS_P1;SDS_P2;PMS_P1;PMS_P2;Temp;Humidity;BMP_temperature;BMP_pressure;BME280_temperature;BME280_humidity;BME280_pressure;Samples;Min_cycle;Max_cycle;Signal;HPM_P1;HPM_P2
2023/09/02 00:00:55;;;;;;;0.00;0.00;;;;;;;;;;4942773;28;20062;-68
2023/09/02 00:03:22;;;;;;;0.00;0.00;;;;;;;;;;4942678;28;20043;-67
2023/09/02 00:05:50;;;;;;;0.30;0.28;;;;;;;;;;4941390;29;20428;-68
2023/09/02 00:08:18;;;;;;;0.00;0.00;;;;;;;;;;4940190;29;20054;-71
2023/09/02 00:10:45;;;;;;;0.00;0.00;;;;;;;;;;4943983;28;20047;-69
2023/09/02 00:13:12;;;;;;;0.00;0.00;;;;;;;;;;4938628;28;20054;-68
2023/09/02 00:15:41;;;;;;;0.00;0.00;;;;;;;;;;4940275;28;20485;-69
2023/09/02 00:18:08;;;;;;;0.00;0.00;;;;;;;;;;4937753;28;20047;-69
2023/09/02 00:20:36;;;;;;;0.00;0.00;;;;;;;;;;4940587;28;20058;-68
2023/09/02 00:23:03;;;;;;;0.00;0.00;;;;;;;;;;4942811;28;20686;-68
2023/09/02 00:25:31;;;;;;;0.30;0.30;;;;;;;;;;4944978;28;20065;-68
2023/09/02 00:27:58;;;;;;;0.00;0.00;;;;;;;;;;4940359;28;20130;-68
2023/09/02 00:30:26;;;;;;;0.00;0.00;;;;;;;;;;4958574;28;20577;-68
2023/09/02 00:32:54;;;;;;;0.00;0.00;;;;;;;;;;4944593;28;20426;-67
2023/09/02 00:35:22;;;;;;;0.00;0.00;;;;;;;;;;4959212;28;20148;-67
2023/09/02 00:37:49;;;;;;;0.00;0.00;;;;;;;;;;4945869;28;20415;-68
2023/09/02 00:40:19;;;;;;;0.00;0.00;;;;;;;;;;4943789;28;20467;-67
2023/09/02 00:42:48;;;;;;;0.17;0.17;;;;;;;;;;4947574;29;20061;-69
2023/09/02 00:45:16;;;;;;;0.00;0.00;;;;;;;;;;4944707;28;20055;-67
2023/09/02 00:47:44;;;;;;;0.00;0.00;;;;;;;;;;4941278;28;20047;-68
2023/09/02 00:50:11;;;;;;;0.00;0.00;;;;;;;;;;4961777;28;20058;-68
2023/09/02 00:52:39;;;;;;;0.00;0.00;;;;;;;;;;4940532;28;20047;-68
2023/09/02 00:55:06;;;;;;;0.00;0.00;;;;;;;;;;4948564;28;20047;-69
2023/09/02 00:57:35;;;;;;;0.00;0.00;;;;;;;;;;4966553;23;20355;-84
2023/09/02 01:00:06;;;;;;;0.00;0.00;;;;;;;;;;4969226;28;20053;-83
2023/09/02 01:02:34;;;;;;;0.00;0.00;;;;;;;;;;4971754;28;20042;-84
2023/09/02 01:05:01;;;;;;;0.00;0.00;;;;;;;;;;4953513;28;20047;-83
2023/09/02 01:07:29;;;;;;;0.00;0.00;;;;;;;;;;4945117;29;20059;-84
2023/09/02 01:09:57;;;;;;;0.00;0.00;;;;;;;;;;4941199;29;20158;-83
2023/09/02 01:12:24;;;;;;;0.00;0.00;;;;;;;;;;4952132;28;20058;-83
2023/09/02 01:14:52;;;;;;;0.00;0.00;;;;;;;;;;4949164;28;20150;-84
2023/09/02 01:17:20;;;;;;;0.00;0.00;;;;;;;;;;4946857;28;20040;-83
2023/09/02 01:19:48;;;;;;;0.00;0.00;;;;;;;;;;4961760;28;20039;-83
2023/09/02 01:22:19;;;;;;;0.00;0.00;;;;;;;;;;4945666;29;20051;-84
2023/09/02 01:25:06;;;;;;;0.00;0.00;;;;;;;;;;4948365;29;20103;-84
2023/09/02 01:27:38;;;;;;;0.00;0.00;;;;;;;;;;4950682;29;20051;-83
2023/09/02 01:30:12;;;;;;;0.00;0.00;;;;;;;;;;4950730;28;20047;-84
2023/09/02 01:32:42;;;;;;;0.00;0.00;;;;;;;;;;4949234;29;20047;-84
2023/09/02 01:35:10;;;;;;;0.00;0.00;;;;;;;;;;4951496;28;20127;-83
2023/09/02 01:37:45;;;;;;;0.00;0.00;;;;;;;;;;4950452;28;20172;-83
2023/09/02 01:40:15;;;;;;;0.00;0.00;;;;;;;;;;4951874;29;20047;-84
2023/09/02 01:42:44;;;;;;;0.00;0.00;;;;;;;;;;4949606;29;20134;-84
2023/09/02 01:45:12;;;;;;;0.35;0.35;;;;;;;;;;4952537;28;20481;-83
2023/09/02 01:47:39;;;;;;;0.00;0.00;;;;;;;;;;4952030;28;20522;-83
2023/09/02 01:50:07;;;;;;;0.00;0.00;;;;;;;;;;4949215;28;20058;-83
2023/09/02 01:52:35;;;;;;;0.00;0.00;;;;;;;;;;4949425;28;20106;-82
2023/09/02 01:55:04;;;;;;;0.00;0.00;;;;;;;;;;4956830;28;20126;-83
2023/09/02 01:57:32;;;;;;;0.00;0.00;;;;;;;;;;4950395;28;20102;-83
2023/09/02 02:00:01;;;;;;;0.00;0.00;;;;;;;;;;4945824;29;20047;-84
2023/09/02 02:02:28;;;;;;;0.00;0.00;;;;;;;;;;4950950;28;20581;-83
2023/09/02 02:04:59;;;;;;;0.00;0.00;;;;;;;;;;4952546;28;20098;-83
2023/09/02 02:07:29;;;;;;;0.00;0.00;;;;;;;;;;4949610;29;20047;-83
2023/09/02 02:09:58;;;;;;;0.00;0.00;;;;;;;;;;4948428;28;20051;-84
2023/09/02 02:12:26;;;;;;;0.00;0.00;;;;;;;;;;4953446;28;20146;-83
2023/09/02 02:14:54;;;;;;;0.00;0.00;;;;;;;;;;4950720;28;20043;-83
2023/09/02 02:17:21;;;;;;;0.35;0.35;;;;;;;;;;4947015;28;20051;-83
2023/09/02 02:19:48;;;;;;;0.00;0.00;;;;;;;;;;4949600;29;20047;-83
2023/09/02 02:22:16;;;;;;;0.00;0.00;;;;;;;;;;4952406;28;20051;-83
2023/09/02 02:24:43;;;;;;;0.00;0.00;;;;;;;;;;4951198;28;20125;-83
2023/09/02 02:27:10;;;;;;;0.00;0.00;;;;;;;;;;4951973;29;20077;-83
2023/09/02 02:29:39;;;;;;;0.00;0.00;;;;;;;;;;4946808;28;20062;-83
2023/09/02 02:32:06;;;;;;;0.10;0.10;;;;;;;;;;4951980;28;20065;-83
2023/09/02 02:34:34;;;;;;;0.25;0.25;;;;;;;;;;4951045;29;20067;-83
2023/09/02 02:37:02;;;;;;;0.00;0.00;;;;;;;;;;4950295;28;20126;-83
2023/09/02 02:39:30;;;;;;;0.00;0.00;;;;;;;;;;4950391;28;20094;-83
2023/09/02 02:41:58;;;;;;;0.00;0.00;;;;;;;;;;4951917;29;20043;-83
2023/09/02 02:44:26;;;;;;;0.00;0.00;;;;;;;;;;4948508;28;20054;-83
2023/09/02 02:46:53;;;;;;;0.00;0.00;;;;;;;;;;4945892;28;20049;-83
2023/09/02 02:49:21;;;;;;;0.00;0.00;;;;;;;;;;4950818;29;20074;-83
2023/09/02 02:51:48;;;;;;;0.00;0.00;;;;;;;;;;4949365;29;20067;-83
2023/09/02 02:54:16;;;;;;;0.00;0.00;;;;;;;;;;4950041;29;20047;-82
2023/09/02 02:56:43;;;;;;;0.00;0.00;;;;;;;;;;4950318;28;20040;-83
2023/09/02 02:59:11;;;;;;;0.00;0.00;;;;;;;;;;4945451;28;20055;-83
2023/09/02 03:01:38;;;;;;;0.00;0.00;;;;;;;;;;4947161;29;20257;-83
2023/09/02 03:04:06;;;;;;;0.00;0.00;;;;;;;;;;4952440;28;20066;-84
2023/09/02 03:06:33;;;;;;;0.00;0.00;;;;;;;;;;4951731;28;20461;-84
2023/09/02 03:09:02;;;;;;;0.00;0.00;;;;;;;;;;4950508;28;20043;-84
2023/09/02 03:11:30;;;;;;;0.00;0.00;;;;;;;;;;4948119;28;20066;-84
2023/09/02 03:13:59;;;;;;;0.00;0.00;;;;;;;;;;4948632;28;20047;-84
2023/09/02 03:16:27;;;;;;;0.00;0.00;;;;;;;;;;4961963;28;20043;-84
2023/09/02 03:18:56;;;;;;;0.10;0.10;;;;;;;;;;4949501;28;20059;-84
2023/09/02 03:21:24;;;;;;;0.00;0.00;;;;;;;;;;4949633;29;20450;-84
2023/09/02 03:23:52;;;;;;;0.00;0.00;;;;;;;;;;4965943;28;20074;-84
2023/09/02 03:26:21;;;;;;;0.00;0.00;;;;;;;;;;4946312;28;20051;-84
2023/09/02 03:28:51;;;;;;;2.90;2.70;;;;;;;;;;4949089;29;20043;-84
2023/09/02 03:31:21;;;;;;;0.10;0.10;;;;;;;;;;4948317;29;20047;-84
2023/09/02 03:33:48;;;;;;;0.00;0.00;;;;;;;;;;4950188;29;20324;-84
2023/09/02 03:36:19;;;;;;;0.00;0.00;;;;;;;;;;4950530;28;20047;-84
2023/09/02 03:38:47;;;;;;;0.00;0.00;;;;;;;;;;4949499;29;20035;-84
2023/09/02 03:41:19;;;;;;;0.00;0.00;;;;;;;;;;4947019;28;20059;-84
2023/09/02 03:43:47;;;;;;;0.10;0.10;;;;;;;;;;4951364;28;20035;-84
2023/09/02 03:46:15;;;;;;;0.10;0.10;;;;;;;;;;4944959;29;20059;-84
2023/09/02 03:48:48;;;;;;;0.10;0.08;;;;;;;;;;4949250;29;20055;-84
2023/09/02 03:51:17;;;;;;;0.00;0.00;;;;;;;;;;4949369;29;20489;-84
2023/09/02 03:53:51;;;;;;;0.00;0.00;;;;;;;;;;4950244;29;20043;-84
2023/09/02 03:56:19;;;;;;;0.00;0.00;;;;;;;;;;4950245;28;20074;-84
2023/09/02 03:58:47;;;;;;;0.00;0.00;;;;;;;;;;4943956;28;20051;-84
2023/09/02 04:01:15;;;;;;;0.00;0.00;;;;;;;;;;4947654;29;20061;-84
2023/09/02 04:03:44;;;;;;;0.00;0.00;;;;;;;;;;4947399;29;20114;-84
2023/09/02 04:06:13;;;;;;;0.00;0.00;;;;;;;;;;4951469;29;20043;-84
2023/09/02 04:08:41;;;;;;;0.00;0.00;;;;;;;;;;4950252;28;20051;-84
2023/09/02 04:11:08;;;;;;;0.00;0.00;;;;;;;;;;4952041;28;20055;-85
2023/09/02 04:13:36;;;;;;;0.10;0.10;;;;;;;;;;4951015;29;20434;-84
2023/09/02 04:16:10;;;;;;;0.17;0.17;;;;;;;;;;4938040;29;20051;-84
2023/09/02 04:18:38;;;;;;;0.00;0.00;;;;;;;;;;4949883;28;20043;-84
2023/09/02 04:21:09;;;;;;;0.22;0.22;;;;;;;;;;4947448;29;20047;-84
2023/09/02 04:23:41;;;;;;;0.00;0.00;;;;;;;;;;4942253;29;20098;-84
2023/09/02 04:26:11;;;;;;;0.00;0.00;;;;;;;;;;4950255;29;20043;-84
2023/09/02 04:28:39;;;;;;;0.20;0.20;;;;;;;;;;4946269;29;20059;-84
2023/09/02 04:31:06;;;;;;;0.00;0.00;;;;;;;;;;4948323;29;20611;-85
2023/09/02 04:33:35;;;;;;;0.05;0.05;;;;;;;;;;4944680;29;20429;-84
2023/09/02 04:36:04;;;;;;;0.00;0.00;;;;;;;;;;4950939;28;20059;-84
2023/09/02 04:38:36;;;;;;;0.00;0.00;;;;;;;;;;4946947;29;20039;-84
2023/09/02 04:41:05;;;;;;;0.00;0.00;;;;;;;;;;4949998;29;20043;-84
2023/09/02 04:43:33;;;;;;;0.10;0.10;;;;;;;;;;4969848;23;20059;-66
2023/09/02 04:46:02;;;;;;;0.00;0.00;;;;;;;;;;4951179;28;20051;-67
2023/09/02 04:48:33;;;;;;;0.08;0.08;;;;;;;;;;4947112;28;20484;-67
2023/09/02 04:51:07;;;;;;;0.00;0.00;;;;;;;;;;4931503;29;20048;-67
2023/09/02 04:53:36;;;;;;;0.20;0.17;;;;;;;;;;4941151;29;20043;-67
2023/09/02 04:56:07;;;;;;;0.10;0.10;;;;;;;;;;4924020;29;20071;-65
2023/09/02 04:58:36;;;;;;;0.10;0.10;;;;;;;;;;4922164;29;20091;-67
2023/09/02 05:01:07;;;;;;;0.10;0.10;;;;;;;;;;4939819;28;20055;-66
2023/09/02 05:03:35;;;;;;;0.00;0.00;;;;;;;;;;4934513;29;20134;-67
2023/09/02 05:06:05;;;;;;;0.00;0.00;;;;;;;;;;4936561;29;20051;-66
2023/09/02 05:08:34;;;;;;;0.30;0.30;;;;;;;;;;4916171;29;20150;-68
2023/09/02 05:11:03;;;;;;;0.00;0.00;;;;;;;;;;4938170;29;20405;-66
2023/09/02 05:13:31;;;;;;;0.00;0.00;;;;;;;;;;4939058;28;20071;-67
2023/09/02 05:15:59;;;;;;;0.00;0.00;;;;;;;;;;4921131;29;20134;-67
2023/09/02 05:18:27;;;;;;;0.15;0.15;;;;;;;;;;4921790;29;20052;-67
2023/09/02 05:20:56;;;;;;;0.00;0.00;;;;;;;;;;4932693;28;20044;-66
2023/09/02 05:23:23;;;;;;;0.00;0.00;;;;;;;;;;4924907;29;20573;-67
2023/09/02 05:25:54;;;;;;;0.05;0.05;;;;;;;;;;4941557;29;20091;-66
2023/09/02 05:28:22;;;;;;;6.78;6.22;;;;;;;;;;4940611;29;20047;-67
2023/09/02 05:30:52;;;;;;;0.00;0.00;;;;;;;;;;4940481;28;20094;-67
2023/09/02 05:33:19;;;;;;;1.35;1.35;;;;;;;;;;4922835;29;20052;-67
2023/09/02 05:35:47;;;;;;;5.03;4.78;;;;;;;;;;4927300;28;20095;-67
2023/09/02 05:38:15;;;;;;;0.00;0.00;;;;;;;;;;4927695;29;20060;-67
2023/09/02 05:40:43;;;;;;;0.03;0.03;;;;;;;;;;4928629;29;20241;-67
2023/09/02 05:43:10;;;;;;;0.00;0.00;;;;;;;;;;4941864;29;20071;-67
2023/09/02 05:45:38;;;;;;;0.15;0.15;;;;;;;;;;4927379;29;20052;-67
2023/09/02 05:48:07;;;;;;;0.10;0.10;;;;;;;;;;4926985;29;20494;-67
2023/09/02 05:50:35;;;;;;;0.00;0.00;;;;;;;;;;4925648;29;20141;-67
2023/09/02 05:53:02;;;;;;;0.00;0.00;;;;;;;;;;4927011;29;20059;-67
2023/09/02 05:55:31;;;;;;;0.25;0.25;;;;;;;;;;4922312;29;20536;-67
2023/09/02 05:57:59;;;;;;;0.10;0.10;;;;;;;;;;4918734;29;20598;-67
2023/09/02 06:00:26;;;;;;;0.00;0.00;;;;;;;;;;4923731;29;23412;-67
2023/09/02 06:02:54;;;;;;;1.38;0.45;;;;;;;;;;4923098;29;20507;-67
2023/09/02 06:05:21;;;;;;;0.10;0.10;;;;;;;;;;4926634;29;20502;-67
2023/09/02 06:07:49;;;;;;;0.00;0.00;;;;;;;;;;4927215;29;20051;-67
2023/09/02 06:10:16;;;;;;;0.00;0.00;;;;;;;;;;4925119;29;20048;-67
2023/09/02 06:12:43;;;;;;;0.45;0.45;;;;;;;;;;4925402;29;20044;-68
2023/09/02 06:15:11;;;;;;;0.00;0.00;;;;;;;;;;4921484;29;20676;-67
2023/09/02 06:17:39;;;;;;;0.00;0.00;;;;;;;;;;4923539;29;20063;-68
2023/09/02 06:20:07;;;;;;;0.00;0.00;;;;;;;;;;4926567;29;20047;-68
2023/09/02 06:22:35;;;;;;;0.10;0.10;;;;;;;;;;4918155;29;20122;-68
2023/09/02 06:25:03;;;;;;;0.00;0.00;;;;;;;;;;4922690;29;20048;-68
2023/09/02 06:27:31;;;;;;;0.00;0.00;;;;;;;;;;4914044;29;20086;-67
2023/09/02 06:29:58;;;;;;;0.00;0.00;;;;;;;;;;4915461;29;20498;-68
2023/09/02 06:32:26;;;;;;;0.00;0.00;;;;;;;;;;4917550;29;20109;-68
2023/09/02 06:34:53;;;;;;;0.00;0.00;;;;;;;;;;4928066;29;20048;-66
2023/09/02 06:37:21;;;;;;;0.00;0.00;;;;;;;;;;4923139;29;20054;-66
2023/09/02 06:39:56;;;;;;;8.93;8.35;;;;;;;;;;4924174;29;20048;-66
2023/09/02 06:42:23;;;;;;;0.40;0.40;;;;;;;;;;4927666;29;20059;-65
2023/09/02 06:44:54;;;;;;;0.15;0.15;;;;;;;;;;4943197;29;20120;-65
2023/09/02 06:47:22;;;;;;;0.00;0.00;;;;;;;;;;4912879;29;20677;-66
2023/09/02 06:49:49;;;;;;;5.75;5.45;;;;;;;;;;4923924;29;20044;-65
2023/09/02 06:52:17;;;;;;;0.00;0.00;;;;;;;;;;4917307;29;20058;-66
2023/09/02 06:54:48;;;;;;;0.17;0.17;;;;;;;;;;4923242;29;20055;-67
2023/09/02 06:57:16;;;;;;;0.00;0.00;;;;;;;;;;4914351;29;20047;-67
2023/09/02 06:59:43;;;;;;;0.00;0.00;;;;;;;;;;4976194;23;21111;-66
2023/09/02 07:02:10;;;;;;;0.10;0.10;;;;;;;;;;4920037;28;20786;-66
2023/09/02 07:04:38;;;;;;;3.88;3.67;;;;;;;;;;4927822;29;20056;-67
2023/09/02 07:07:06;;;;;;;0.35;0.35;;;;;;;;;;4923912;29;20509;-67
2023/09/02 07:09:33;;;;;;;0.20;0.20;;;;;;;;;;4924930;29;20052;-65
2023/09/02 07:12:00;;;;;;;0.10;0.10;;;;;;;;;;4920113;29;20060;-65
2023/09/02 07:14:28;;;;;;;6.68;6.32;;;;;;;;;;4927507;29;20051;-67
2023/09/02 07:16:55;;;;;;;10.23;9.63;;;;;;;;;;4923666;29;20052;-66
2023/09/02 07:19:24;;;;;;;0.32;0.32;;;;;;;;;;4924167;29;20055;-65
2023/09/02 07:21:51;;;;;;;0.15;0.15;;;;;;;;;;4926893;29;20043;-66
2023/09/02 07:24:19;;;;;;;0.03;0.03;;;;;;;;;;4926051;29;20047;-65
2023/09/02 07:26:46;;;;;;;0.00;0.00;;;;;;;;;;4926814;29;20052;-67
2023/09/02 07:29:14;;;;;;;3.55;3.35;;;;;;;;;;4922875;29;20052;-65
2023/09/02 07:31:43;;;;;;;0.70;0.15;;;;;;;;;;4920879;29;20058;-65
2023/09/02 07:34:11;;;;;;;8.07;7.65;;;;;;;;;;4924340;29;20421;-66
2023/09/02 07:36:38;;;;;;;0.03;0.03;;;;;;;;;;4936968;29;20048;-65
2023/09/02 07:39:06;;;;;;;0.05;0.05;;;;;;;;;;4924928;29;20159;-66
2023/09/02 07:41:33;;;;;;;0.95;0.50;;;;;;;;;;4923469;29;20055;-66
2023/09/02 07:44:01;;;;;;;0.00;0.00;;;;;;;;;;4924859;29;20331;-66
2023/09/02 07:46:28;;;;;;;0.10;0.10;;;;;;;;;;4928790;29;20047;-67
2023/09/02 07:48:56;;;;;;;2.05;1.95;;;;;;;;;;4928818;29;20052;-67
2023/09/02 07:51:23;;;;;;;0.00;0.00;;;;;;;;;;4928739;29;20656;-66
2023/09/02 07:53:50;;;;;;;0.00;0.00;;;;;;;;;;4921273;29;20040;-66
2023/09/02 07:56:18;;;;;;;0.00;0.00;;;;;;;;;;4928623;29;20062;-67
2023/09/02 07:58:48;;;;;;;0.00;0.00;;;;;;;;;;4921882;29;20578;-65
2023/09/02 08:01:15;;;;;;;0.30;0.30;;;;;;;;;;4930864;28;20075;-66
2023/09/02 08:03:43;;;;;;;3.40;3.10;;;;;;;;;;4921133;29;20151;-66
2023/09/02 08:06:11;;;;;;;6.28;5.93;;;;;;;;;;4921908;29;20043;-66
2023/09/02 08:08:39;;;;;;;0.10;0.10;;;;;;;;;;4922845;29;20511;-66
2023/09/02 08:11:06;;;;;;;0.73;0.73;;;;;;;;;;4922967;29;20073;-65
2023/09/02 08:13:34;;;;;;;0.10;0.10;;;;;;;;;;4921232;29;20404;-65
2023/09/02 08:16:05;;;;;;;0.22;0.22;;;;;;;;;;4931336;29;20052;-67
2023/09/02 08:18:34;;;;;;;0.00;0.00;;;;;;;;;;4929925;29;20048;-65
2023/09/02 08:21:02;;;;;;;4.55;4.25;;;;;;;;;;4929669;29;20063;-66
2023/09/02 08:23:29;;;;;;;1.05;0.95;;;;;;;;;;4930113;29;20170;-67
2023/09/02 08:25:57;;;;;;;2.60;2.50;;;;;;;;;;4922593;29;20098;-67
2023/09/02 08:28:24;;;;;;;0.10;0.10;;;;;;;;;;4930246;29;20143;-66
2023/09/02 08:30:52;;;;;;;0.10;0.10;;;;;;;;;;4928746;29;20052;-65
2023/09/02 08:33:19;;;;;;;6.93;6.50;;;;;;;;;;4928365;29;20047;-67
2023/09/02 08:35:47;;;;;;;2.83;2.72;;;;;;;;;;4928676;29;20047;-65
2023/09/02 08:38:14;;;;;;;0.00;0.00;;;;;;;;;;4928172;29;20062;-66
2023/09/02 08:40:43;;;;;;;0.20;0.20;;;;;;;;;;4928177;29;20315;-66
2023/09/02 08:43:11;;;;;;;0.00;0.00;;;;;;;;;;4929084;29;20054;-66
2023/09/02 08:45:41;;;;;;;1.30;1.30;;;;;;;;;;4928101;29;20044;-65
2023/09/02 08:48:11;;;;;;;0.00;0.00;;;;;;;;;;4928907;29;20052;-66
2023/09/02 08:50:39;;;;;;;0.17;0.17;;;;;;;;;;4927888;29;20067;-65
2023/09/02 08:53:07;;;;;;;0.10;0.10;;;;;;;;;;4928788;29;20079;-66
2023/09/02 08:55:35;;;;;;;0.00;0.00;;;;;;;;;;4929575;29;20099;-67
2023/09/02 08:58:03;;;;;;;0.00;0.00;;;;;;;;;;4931956;29;20036;-67
2023/09/02 09:00:32;;;;;;;0.00;0.00;;;;;;;;;;4931951;29;20048;-66
2023/09/02 09:03:01;;;;;;;5.57;5.15;;;;;;;;;;4931267;29;20491;-66
2023/09/02 09:05:29;;;;;;;0.03;0.03;;;;;;;;;;4932030;29;20115;-65
2023/09/02 09:07:56;;;;;;;0.20;0.20;;;;;;;;;;4930899;29;20497;-66
2023/09/02 09:10:24;;;;;;;0.00;0.00;;;;;;;;;;4923656;29;20115;-66
2023/09/02 09:12:52;;;;;;;0.05;0.05;;;;;;;;;;4924419;29;20059;-66
2023/09/02 09:15:21;;;;;;;1.55;1.55;;;;;;;;;;4931668;29;20055;-66
2023/09/02 09:17:49;;;;;;;0.00;0.00;;;;;;;;;;4915903;29;20421;-66
2023/09/02 09:20:17;;;;;;;0.00;0.00;;;;;;;;;;4931588;29;20497;-65
2023/09/02 09:22:44;;;;;;;0.00;0.00;;;;;;;;;;4930554;29;20485;-66
2023/09/02 09:25:12;;;;;;;1.55;1.45;;;;;;;;;;4931515;29;20052;-65
2023/09/02 09:27:39;;;;;;;0.30;0.28;;;;;;;;;;4931360;29;20064;-64
2023/09/02 09:30:07;;;;;;;0.00;0.00;;;;;;;;;;4931325;29;20051;-66
2023/09/02 09:32:34;;;;;;;0.00;0.00;;;;;;;;;;4931413;29;20095;-66
2023/09/02 09:35:02;;;;;;;0.00;0.00;;;;;;;;;;4931386;29;20079;-65
2023/09/02 09:37:31;;;;;;;0.00;0.00;;;;;;;;;;4930096;29;20051;-67
2023/09/02 09:39:58;;;;;;;0.00;0.00;;;;;;;;;;4931334;29;20514;-65
2023/09/02 09:42:35;;;;;;;0.55;0.55;;;;;;;;;;4931211;29;20611;-65
2023/09/02 09:45:03;;;;;;;0.90;0.10;;;;;;;;;;4931613;29;20052;-66
2023/09/02 09:47:31;;;;;;;0.10;0.10;;;;;;;;;;4932076;29;20055;-66
2023/09/02 09:50:14;;;;;;;3.45;3.25;;;;;;;;;;4931503;29;20562;-64
2023/09/02 09:52:59;;;;;;;0.03;0.03;;;;;;;;;;4924546;29;20502;-65
2023/09/02 09:55:26;;;;;;;0.10;0.10;;;;;;;;;;4931110;29;20443;-64
2023/09/02 09:57:54;;;;;;;0.00;0.00;;;;;;;;;;4922935;29;20062;-66
2023/09/02 10:00:22;;;;;;;0.10;0.10;;;;;;;;;;4930623;29;20050;-66
2023/09/02 10:02:51;;;;;;;0.43;0.30;;;;;;;;;;4931303;29;20052;-65
2023/09/02 10:05:25;;;;;;;0.32;0.32;;;;;;;;;;4930646;29;20050;-66
2023/09/02 10:08:00;;;;;;;0.00;0.00;;;;;;;;;;4929941;29;20434;-65
2023/09/02 10:10:29;;;;;;;0.00;0.00;;;;;;;;;;4930248;29;20464;-65
2023/09/02 10:12:58;;;;;;;4.55;4.28;;;;;;;;;;4930636;29;20063;-67
2023/09/02 10:15:26;;;;;;;0.00;0.00;;;;;;;;;;4930872;29;20060;-65
2023/09/02 10:17:58;;;;;;;0.00;0.00;;;;;;;;;;4930424;29;20048;-65
2023/09/02 10:20:27;;;;;;;5.10;4.90;;;;;;;;;;4930057;29;20055;-66
2023/09/02 10:22:54;;;;;;;0.10;0.00;;;;;;;;;;4919851;29;20059;-66
2023/09/02 10:25:24;;;;;;;0.00;0.00;;;;;;;;;;4925423;29;20058;-64
2023/09/02 10:27:59;;;;;;;0.00;0.00;;;;;;;;;;4920244;29;20060;-65
2023/09/02 10:30:30;;;;;;;0.00;0.00;;;;;;;;;;4926354;29;20055;-66
2023/09/02 10:33:07;;;;;;;0.38;0.38;;;;;;;;;;4927899;29;20440;-66
2023/09/02 10:35:39;;;;;;;0.80;0.80;;;;;;;;;;4927850;29;20051;-66
2023/09/02 10:38:07;;;;;;;208.57;192.82;;;;;;;;;;4926996;29;20059;-67
2023/09/02 10:40:38;;;;;;;6.68;6.32;;;;;;;;;;4926495;28;20063;-67
2023/09/02 10:43:05;;;;;;;;;;;;;;;;;;4928291;29;20058;-68
2023/09/02 10:45:33;;;;;;;0.10;0.10;;;;;;;;;;4937238;29;20392;-65
2023/09/02 10:48:01;;;;;;;46.47;43.53;;;;;;;;;;4927530;29;20058;-65
2023/09/02 10:50:29;;;;;;;65.13;60.40;;;;;;;;;;4924903;29;20063;-66
2023/09/02 10:52:57;;;;;;;0.13;0.13;;;;;;;;;;4923810;29;20239;-67
2023/09/02 10:56:00;;;;;;;15.02;14.07;;;;;;;;;;4923106;29;20052;-66
2023/09/02 10:58:27;;;;;;;0.00;0.00;;;;;;;;;;4922367;29;20052;-66
2023/09/02 11:00:55;;;;;;;0.00;0.00;;;;;;;;;;4924284;29;20054;-65
2023/09/02 11:03:42;;;;;;;3.65;3.50;;;;;;;;;;4925896;29;20418;-66
2023/09/02 11:06:12;;;;;;;76.55;71.57;;;;;;;;;;4924505;29;20481;-66
2023/09/02 11:08:41;;;;;;;0.20;0.20;;;;;;;;;;4924481;29;20530;-66
2023/09/02 11:11:08;;;;;;;5.18;4.88;;;;;;;;;;4925835;29;20056;-66
2023/09/02 11:13:56;;;;;;;0.10;0.10;;;;;;;;;;4925021;29;20052;-65
2023/09/02 11:16:23;;;;;;;13.60;12.63;;;;;;;;;;4921798;29;20047;-66
2023/09/02 11:18:52;;;;;;;7.85;7.35;;;;;;;;;;4921873;29;20183;-67
2023/09/02 11:21:40;;;;;;;0.00;0.00;;;;;;;;;;4909225;29;20048;-67
2023/09/02 11:24:14;;;;;;;0.00;0.00;;;;;;;;;;4921865;29;20048;-66
2023/09/02 11:26:52;;;;;;;0.00;0.00;;;;;;;;;;4925329;29;20040;-66
2023/09/02 11:29:22;;;;;;;1.08;1.08;;;;;;;;;;4927531;29;20047;-66
2023/09/02 11:31:59;;;;;;;0.50;0.50;;;;;;;;;;4928829;29;20126;-65
2023/09/02 11:34:28;;;;;;;0.35;0.35;;;;;;;;;;4929133;29;20061;-65
2023/09/02 11:36:56;;;;;;;0.30;0.20;;;;;;;;;;4929973;29;20489;-65
2023/09/02 11:39:27;;;;;;;4.28;0.20;;;;;;;;;;4929216;29;20070;-65
2023/09/02 11:42:07;;;;;;;0.00;0.00;;;;;;;;;;4929219;29;20040;-66
2023/09/02 11:44:35;;;;;;;11.65;11.07;;;;;;;;;;4928938;29;20114;-64
2023/09/02 11:47:03;;;;;;;0.22;0.22;;;;;;;;;;4943357;29;20122;-67
2023/09/02 11:49:30;;;;;;;21.27;20.00;;;;;;;;;;4928437;29;20102;-67
2023/09/02 11:51:58;;;;;;;7.40;7.07;;;;;;;;;;4927973;29;20059;-64
2023/09/02 11:54:26;;;;;;;0.10;0.10;;;;;;;;;;4928995;29;20051;-67
2023/09/02 11:57:03;;;;;;;0.10;0.10;;;;;;;;;;4929322;29;20598;-67
2023/09/02 11:59:30;;;;;;;0.05;0.05;;;;;;;;;;4925664;29;20062;-67
2023/09/02 12:02:08;;;;;;;0.00;0.00;;;;;;;;;;4912550;29;20130;-66
2023/09/02 12:04:36;;;;;;;9.13;8.70;;;;;;;;;;4915980;29;20134;-67
2023/09/02 12:07:05;;;;;;;18.20;16.95;;;;;;;;;;4917995;29;20083;-66
2023/09/02 12:09:32;;;;;;;0.68;0.68;;;;;;;;;;4926908;29;20056;-66
2023/09/02 12:12:01;;;;;;;0.20;0.20;;;;;;;;;;4928164;28;20051;-65
2023/09/02 12:14:28;;;;;;;10.45;9.50;;;;;;;;;;4928554;29;20114;-67
2023/09/02 12:16:57;;;;;;;0.00;0.00;;;;;;;;;;4927758;29;20067;-66
2023/09/02 12:19:25;;;;;;;0.43;0.43;;;;;;;;;;4928333;29;20114;-66
2023/09/02 12:21:53;;;;;;;0.10;0.10;;;;;;;;;;4928485;29;20522;-65
2023/09/02 12:24:21;;;;;;;0.00;0.00;;;;;;;;;;4927944;29;20522;-65
2023/09/02 12:26:49;;;;;;;0.00;0.00;;;;;;;;;;4928523;29;20502;-66
2023/09/02 12:29:17;;;;;;;0.00;0.00;;;;;;;;;;4927391;29;20078;-65
2023/09/02 12:31:56;;;;;;;0.00;0.00;;;;;;;;;;4925682;29;20529;-66
2023/09/02 12:34:24;;;;;;;0.00;0.00;;;;;;;;;;4924339;29;20048;-66
2023/09/02 12:36:52;;;;;;;0.00;0.00;;;;;;;;;;4925385;29;20115;-65
2023/09/02 12:39:23;;;;;;;0.00;0.00;;;;;;;;;;4924547;29;20058;-66
2023/09/02 12:41:51;;;;;;;0.10;0.10;;;;;;;;;;4919125;29;20052;-66
2023/09/02 12:44:19;;;;;;;0.03;0.03;;;;;;;;;;4919370;29;20051;-65
2023/09/02 12:46:47;;;;;;;0.00;0.00;;;;;;;;;;4916210;29;20047;-66
2023/09/02 12:49:15;;;;;;;0.00;0.00;;;;;;;;;;4925440;29;20063;-65
2023/09/02 12:51:43;;;;;;;0.00;0.00;;;;;;;;;;4924950;29;20083;-65
2023/09/02 12:54:11;;;;;;;0.00;0.00;;;;;;;;;;4923135;28;20055;-65
2023/09/02 12:56:39;;;;;;;6.75;6.43;;;;;;;;;;4925679;29;20044;-66
2023/09/02 12:59:07;;;;;;;0.00;0.00;;;;;;;;;;4954090;23;20249;-74
2023/09/02 13:01:34;;;;;;;0.00;0.00;;;;;;;;;;4960193;28;20207;-74
2023/09/02 13:04:02;;;;;;;0.60;0.60;;;;;;;;;;4960236;28;20053;-73
2023/09/02 13:06:31;;;;;;;0.00;0.00;;;;;;;;;;4964373;28;20078;-73
2023/09/02 13:08:58;;;;;;;0.00;0.00;;;;;;;;;;4964747;28;20051;-74
2023/09/02 13:11:26;;;;;;;0.03;0.00;;;;;;;;;;4965525;28;20524;-74
2023/09/02 13:13:54;;;;;;;0.00;0.00;;;;;;;;;;4965820;28;20062;-72
2023/09/02 13:16:22;;;;;;;6.28;5.82;;;;;;;;;;4965835;28;20196;-73
2023/09/02 13:18:52;;;;;;;0.00;0.00;;;;;;;;;;4963437;28;20150;-72
2023/09/02 13:21:20;;;;;;;0.20;0.20;;;;;;;;;;4965239;28;20051;-72
2023/09/02 13:23:48;;;;;;;0.00;0.00;;;;;;;;;;4964308;28;20050;-72
2023/09/02 13:26:18;;;;;;;0.00;0.00;;;;;;;;;;4966074;28;20058;-73
2023/09/02 13:28:46;;;;;;;0.00;0.00;;;;;;;;;;4965004;28;20059;-73
2023/09/02 13:31:14;;;;;;;5.88;5.60;;;;;;;;;;4965620;28;20051;-73
2023/09/02 13:33:42;;;;;;;2.72;2.63;;;;;;;;;;4965613;28;20524;-74
2023/09/02 13:36:10;;;;;;;0.10;0.10;;;;;;;;;;4965667;28;20126;-73
2023/09/02 13:38:40;;;;;;;1.55;1.55;;;;;;;;;;4972245;28;20058;-73
2023/09/02 13:41:09;;;;;;;0.43;0.43;;;;;;;;;;4964977;28;20057;-73
2023/09/02 13:43:37;;;;;;;0.10;0.10;;;;;;;;;;4967965;28;20413;-72
2023/09/02 13:46:07;;;;;;;0.00;0.00;;;;;;;;;;4969086;28;20058;-73
2023/09/02 13:48:35;;;;;;;0.10;0.10;;;;;;;;;;4968057;28;20047;-74
2023/09/02 13:51:04;;;;;;;0.00;0.00;;;;;;;;;;4968287;28;20050;-73
2023/09/02 13:53:34;;;;;;;14.38;13.25;;;;;;;;;;4968142;28;20070;-73
2023/09/02 13:56:02;;;;;;;0.08;0.08;;;;;;;;;;4968094;28;20404;-73
2023/09/02 13:58:33;;;;;;;0.10;0.10;;;;;;;;;;4967187;28;20054;-73
2023/09/02 14:01:01;;;;;;;16.08;15.25;;;;;;;;;;4968416;28;20065;-74
2023/09/02 14:03:29;;;;;;;7.03;6.65;;;;;;;;;;4968988;28;20057;-72
2023/09/02 14:05:59;;;;;;;0.00;0.00;;;;;;;;;;4968095;28;20545;-73
2023/09/02 14:08:37;;;;;;;0.10;0.10;;;;;;;;;;4968219;28;20054;-73
2023/09/02 14:11:05;;;;;;;0.17;0.17;;;;;;;;;;4968434;28;20065;-73
2023/09/02 14:13:37;;;;;;;0.00;0.00;;;;;;;;;;4968395;28;20074;-73
2023/09/02 14:16:05;;;;;;;0.00;0.00;;;;;;;;;;4967411;28;20059;-73
2023/09/02 14:18:32;;;;;;;0.10;0.10;;;;;;;;;;4967127;28;20090;-74
2023/09/02 14:21:00;;;;;;;4.68;3.55;;;;;;;;;;4967924;28;20407;-74
2023/09/02 14:23:28;;;;;;;9.38;8.95;;;;;;;;;;4968156;28;20051;-73
2023/09/02 14:25:55;;;;;;;0.00;0.00;;;;;;;;;;4967719;28;20538;-73
2023/09/02 14:28:23;;;;;;;0.10;0.10;;;;;;;;;;4965619;28;20049;-74
2023/09/02 14:30:50;;;;;;;0.05;0.05;;;;;;;;;;4966849;28;20066;-73
2023/09/02 14:33:18;;;;;;;0.20;0.20;;;;;;;;;;4967633;28;20101;-73
2023/09/02 14:35:45;;;;;;;0.25;0.25;;;;;;;;;;4968059;28;20047;-75
2023/09/02 14:38:13;;;;;;;0.10;0.10;;;;;;;;;;4961670;28;20043;-79
2023/09/02 14:40:40;;;;;;;3.67;3.50;;;;;;;;;;4968057;28;20471;-74
2023/09/02 14:43:08;;;;;;;4.85;4.65;;;;;;;;;;4967902;28;20167;-73
2023/09/02 14:45:35;;;;;;;0.10;0.10;;;;;;;;;;4967561;28;20051;-73
2023/09/02 14:48:03;;;;;;;0.00;0.00;;;;;;;;;;4967725;28;20492;-73
2023/09/02 14:50:30;;;;;;;0.00;0.00;;;;;;;;;;4967436;28;20058;-73
2023/09/02 14:52:58;;;;;;;0.00;0.00;;;;;;;;;;4966445;28;20066;-73